createdAt,value
2018-07-22T00:00:01.430Z,21.80
2018-07-22T00:02:29.761Z,21.80
2018-07-22T00:04:58.073Z,21.70
2018-07-22T00:07:26.321Z,21.50
2018-07-22T00:12:23.177Z,21.40
2018-07-22T00:14:51.463Z,21.40
2018-07-22T00:17:19.767Z,21.40
2018-07-22T00:19:48.052Z,21.50
2018-07-22T00:22:16.587Z,21.50
2018-07-22T00:24:44.873Z,21.30
2018-07-22T00:27:13.385Z,21.30
2018-07-22T00:29:41.631Z,21.30
2018-07-22T00:32:10.098Z,21.50
2018-07-22T00:34:38.402Z,21.50
2018-07-22T00:37:06.836Z,21.60
2018-07-22T00:39:35.137Z,21.50
2018-07-22T00:42:03.449Z,21.50
2018-07-22T00:44:31.751Z,21.50
2018-07-22T00:47:00.115Z,21.40
2018-07-22T00:49:28.431Z,21.40
2018-07-22T00:54:24.777Z,21.10
2018-07-22T00:56:53.189Z,20.90
2018-07-22T00:59:22.050Z,20.90
2018-07-22T01:01:50.443Z,21.00
2018-07-22T01:04:18.925Z,21.00
2018-07-22T01:06:47.239Z,20.80
2018-07-22T01:09:15.539Z,20.60
2018-07-22T01:11:43.841Z,20.60
2018-07-22T01:14:12.135Z,20.60
2018-07-22T01:16:40.445Z,20.70
2018-07-22T01:19:08.777Z,20.80
2018-07-22T01:21:37.063Z,20.90
2018-07-22T01:24:05.348Z,20.90
2018-07-22T01:26:33.797Z,20.80
2018-07-22T01:29:02.391Z,20.60
2018-07-22T01:31:30.900Z,20.30
2018-07-22T01:33:59.287Z,20.10
2018-07-22T01:36:27.743Z,19.90
2018-07-22T01:38:56.051Z,19.80
2018-07-22T01:41:24.411Z,19.80
2018-07-22T01:43:52.745Z,19.80
2018-07-22T01:46:21.051Z,20.00
2018-07-22T01:48:49.321Z,20.10
2018-07-22T01:56:13.863Z,19.50
2018-07-22T01:58:42.267Z,19.40
2018-07-22T02:01:10.823Z,19.40
2018-07-22T02:03:39.125Z,19.30
2018-07-22T02:06:07.443Z,19.40
2018-07-22T02:11:03.945Z,19.20
2018-07-22T02:13:32.271Z,19.30
2018-07-22T02:16:00.561Z,19.30
2018-07-22T02:18:28.854Z,19.30
2018-07-22T02:20:57.378Z,19.30
2018-07-22T02:23:25.638Z,19.30
2018-07-22T02:25:53.950Z,19.10
2018-07-22T02:28:22.276Z,19.20
2018-07-22T02:30:50.602Z,19.20
2018-07-22T02:35:46.988Z,19.40
2018-07-22T02:38:15.342Z,19.30
2018-07-22T02:40:43.637Z,19.30
2018-07-22T02:43:12.251Z,19.30
2018-07-22T02:45:40.584Z,19.30
2018-07-22T02:48:09.299Z,19.20
2018-07-22T02:50:37.583Z,19.10
2018-07-22T02:53:05.887Z,19.10
2018-07-22T02:55:34.193Z,19.10
2018-07-22T02:58:02.472Z,19.10
2018-07-22T03:00:30.949Z,19.20
2018-07-22T03:02:59.303Z,19.10
2018-07-22T03:05:27.647Z,19.20
2018-07-22T03:07:56.005Z,19.10
2018-07-22T03:10:24.323Z,19.20
2018-07-22T03:12:52.701Z,19.10
2018-07-22T03:15:21.025Z,19.00
2018-07-22T03:17:49.303Z,18.90
2018-07-22T03:20:17.831Z,18.90
2018-07-22T03:22:46.136Z,19.00
2018-07-22T03:25:14.536Z,19.00
2018-07-22T03:27:42.817Z,19.10
2018-07-22T03:30:11.095Z,18.90
2018-07-22T03:32:39.369Z,18.80
2018-07-22T03:35:07.633Z,18.90
2018-07-22T03:37:36.117Z,19.10
2018-07-22T03:40:04.625Z,19.00
2018-07-22T03:42:32.893Z,19.10
2018-07-22T03:45:01.255Z,19.20
2018-07-22T03:47:29.690Z,19.20
2018-07-22T03:49:58.165Z,19.10
2018-07-22T03:52:26.453Z,19.30
2018-07-22T03:54:54.748Z,19.40
2018-07-22T03:57:23.027Z,19.50
2018-07-22T03:59:51.317Z,19.50
2018-07-22T04:02:19.661Z,19.50
2018-07-22T04:04:47.973Z,19.50
2018-07-22T04:07:16.261Z,19.50
2018-07-22T04:09:44.629Z,19.60
2018-07-22T04:12:12.921Z,19.50
2018-07-22T04:14:41.240Z,19.50
2018-07-22T04:17:09.555Z,19.40
2018-07-22T04:19:37.877Z,19.10
2018-07-22T04:22:06.141Z,19.00
2018-07-22T04:24:34.661Z,19.00
2018-07-22T04:27:03.380Z,18.80
2018-07-22T04:29:32.049Z,18.90
2018-07-22T04:32:00.895Z,19.00
2018-07-22T04:34:29.509Z,19.00
2018-07-22T04:36:58.277Z,19.00
2018-07-22T04:39:26.817Z,18.90
2018-07-22T04:41:55.483Z,18.90
2018-07-22T04:44:24.019Z,18.90
2018-07-22T04:46:52.546Z,18.80
2018-07-22T04:49:21.077Z,18.80
2018-07-22T04:51:49.633Z,18.80
2018-07-22T04:54:18.173Z,18.70
2018-07-22T04:56:46.707Z,18.70
2018-07-22T04:59:15.629Z,18.80
2018-07-22T05:01:44.192Z,18.80
2018-07-22T05:04:12.954Z,18.90
2018-07-22T05:06:41.655Z,18.80
2018-07-22T05:09:11.617Z,18.80
2018-07-22T05:11:40.267Z,18.80
2018-07-22T05:14:08.571Z,18.80
2018-07-22T05:16:37.249Z,18.80
2018-07-22T05:19:05.737Z,18.70
2018-07-22T05:21:34.005Z,18.70
2018-07-22T05:24:02.346Z,18.70
2018-07-22T05:26:30.652Z,18.70
2018-07-22T05:28:58.963Z,18.70
2018-07-22T05:31:27.277Z,18.70
2018-07-22T05:33:55.617Z,18.80
2018-07-22T05:38:51.901Z,18.80
2018-07-22T05:41:20.209Z,18.80
2018-07-22T05:43:48.516Z,18.90
2018-07-22T05:48:44.827Z,19.00
2018-07-22T05:51:13.126Z,19.10
2018-07-22T05:56:09.533Z,19.20
2018-07-22T05:58:37.830Z,19.20
2018-07-22T06:01:06.487Z,19.30
2018-07-22T06:03:34.762Z,19.40
2018-07-22T06:06:03.221Z,19.50
2018-07-22T06:08:31.687Z,19.50
2018-07-22T06:10:59.975Z,19.50
2018-07-22T06:13:28.251Z,19.60
2018-07-22T06:15:56.541Z,19.60
2018-07-22T06:18:24.801Z,19.70
2018-07-22T06:20:53.095Z,19.70
2018-07-22T06:23:21.607Z,19.80
2018-07-22T06:25:49.947Z,19.80
2018-07-22T06:28:18.299Z,19.80
2018-07-22T06:30:46.645Z,20.00
2018-07-22T06:33:14.927Z,20.00
2018-07-22T06:35:43.337Z,20.10
2018-07-22T06:40:39.668Z,20.20
2018-07-22T06:43:08.141Z,20.30
2018-07-22T06:45:36.432Z,20.30
2018-07-22T06:48:04.715Z,20.30
2018-07-22T06:50:32.995Z,20.40
2018-07-22T06:53:01.603Z,20.40
2018-07-22T06:55:30.253Z,20.50
2018-07-22T06:57:58.548Z,20.50
2018-07-22T07:00:26.869Z,20.50
2018-07-22T07:02:55.221Z,20.60
2018-07-22T07:05:23.653Z,20.60
2018-07-22T07:07:51.833Z,20.70
2018-07-22T07:10:20.129Z,20.70
2018-07-22T07:12:48.418Z,20.70
2018-07-22T07:15:16.723Z,20.80
2018-07-22T07:17:45.031Z,20.80
2018-07-22T07:20:13.348Z,20.90
2018-07-22T07:22:41.732Z,21.00
2018-07-22T07:25:10.007Z,21.00
2018-07-22T07:27:38.354Z,21.10
2018-07-22T07:30:06.772Z,21.20
2018-07-22T07:32:35.136Z,21.20
2018-07-22T07:35:03.687Z,21.20
2018-07-22T07:37:32.156Z,21.30
2018-07-22T07:40:00.444Z,21.30
2018-07-22T07:42:28.739Z,21.40
2018-07-22T07:44:57.029Z,21.40
2018-07-22T07:47:25.495Z,21.50
2018-07-22T07:49:53.811Z,21.60
2018-07-22T07:52:22.195Z,21.60
2018-07-22T07:54:50.627Z,21.70
2018-07-22T07:57:18.979Z,21.70
2018-07-22T07:59:47.279Z,21.90
2018-07-22T08:02:15.739Z,22.00
2018-07-22T08:04:44.161Z,22.00
2018-07-22T08:07:12.687Z,21.90
2018-07-22T08:09:40.983Z,21.90
2018-07-22T08:12:09.237Z,21.90
2018-07-22T08:14:37.575Z,21.90
2018-07-22T08:17:06.318Z,22.00
2018-07-22T08:19:34.753Z,22.00
2018-07-22T08:22:03.119Z,22.00
2018-07-22T08:24:31.401Z,22.10
2018-07-22T08:26:59.694Z,22.10
2018-07-22T08:29:31.015Z,22.20
2018-07-22T08:31:59.752Z,22.20
2018-07-22T08:34:28.061Z,22.20
2018-07-22T08:36:56.413Z,22.20
2018-07-22T08:39:25.918Z,22.30
2018-07-22T08:41:54.803Z,22.30
2018-07-22T08:44:23.327Z,22.30
2018-07-22T08:46:51.699Z,22.50
2018-07-22T08:49:19.975Z,22.60
2018-07-22T08:51:48.291Z,22.60
2018-07-22T08:54:16.540Z,22.60
2018-07-22T08:56:44.848Z,22.70
2018-07-22T08:59:13.194Z,22.80
2018-07-22T09:01:41.471Z,22.80
2018-07-22T09:04:09.851Z,22.90
2018-07-22T09:06:38.243Z,22.90
2018-07-22T09:09:08.537Z,23.10
2018-07-22T09:11:36.883Z,22.90
2018-07-22T09:14:05.529Z,22.90
2018-07-22T09:16:34.007Z,22.90
2018-07-22T09:19:02.384Z,23.00
2018-07-22T09:21:30.657Z,23.00
2018-07-22T09:23:58.977Z,23.00
2018-07-22T09:26:27.262Z,23.10
2018-07-22T09:28:55.540Z,23.20
2018-07-22T09:33:52.129Z,23.60
2018-07-22T09:36:20.576Z,23.60
2018-07-22T09:38:48.787Z,23.60
2018-07-22T09:41:17.074Z,23.50
2018-07-22T09:43:45.413Z,23.40
2018-07-22T09:48:41.789Z,23.40
2018-07-22T09:51:10.274Z,23.40
2018-07-22T09:53:38.730Z,23.40
2018-07-22T09:56:07.005Z,23.50
2018-07-22T09:58:35.333Z,23.50
2018-07-22T10:01:03.631Z,23.60
2018-07-22T10:03:32.546Z,23.70
2018-07-22T10:06:01.707Z,23.70
2018-07-22T10:08:30.224Z,23.60
2018-07-22T10:10:58.621Z,23.50
2018-07-22T10:13:26.880Z,23.60
2018-07-22T10:15:55.246Z,23.80
2018-07-22T10:18:23.556Z,23.80
2018-07-22T10:20:52.082Z,23.90
2018-07-22T10:23:20.509Z,23.90
2018-07-22T10:28:16.774Z,24.00
2018-07-22T10:30:45.013Z,24.20
2018-07-22T10:33:13.364Z,24.20
2018-07-22T10:35:41.645Z,24.30
2018-07-22T10:38:09.952Z,24.50
2018-07-22T10:40:38.223Z,24.40
2018-07-22T10:43:06.514Z,24.20
2018-07-22T10:45:34.785Z,24.40
2018-07-22T10:48:03.069Z,24.40
2018-07-22T10:50:31.358Z,24.50
2018-07-22T10:52:59.644Z,24.30
2018-07-22T10:55:27.949Z,24.50
2018-07-22T10:57:56.321Z,24.70
2018-07-22T11:00:24.760Z,24.60
2018-07-22T11:02:53.057Z,24.50
2018-07-22T11:05:21.419Z,24.60
2018-07-22T11:07:49.702Z,24.40
2018-07-22T11:10:18.009Z,24.50
2018-07-22T11:12:46.334Z,24.30
2018-07-22T11:15:14.625Z,24.40
2018-07-22T11:17:42.897Z,24.30
2018-07-22T11:20:11.203Z,24.60
2018-07-22T11:22:39.480Z,24.50
2018-07-22T11:25:07.758Z,24.40
2018-07-22T11:27:36.275Z,24.50
2018-07-22T11:32:32.774Z,24.60
2018-07-22T11:35:01.026Z,24.60
2018-07-22T11:37:29.312Z,24.70
2018-07-22T11:39:57.594Z,24.80
2018-07-22T11:42:25.870Z,24.80
2018-07-22T11:44:54.148Z,24.80
2018-07-22T11:47:22.610Z,24.90
2018-07-22T11:49:50.912Z,24.90
2018-07-22T11:52:19.223Z,24.90
2018-07-22T11:54:47.538Z,24.90
2018-07-22T11:57:15.824Z,25.00
2018-07-22T11:59:44.282Z,25.10
2018-07-22T12:02:12.654Z,25.00
2018-07-22T12:04:40.934Z,24.90
2018-07-22T12:07:09.206Z,25.10
2018-07-22T12:09:37.512Z,25.20
2018-07-22T12:12:06.322Z,25.20
2018-07-22T12:14:34.572Z,25.10
2018-07-22T12:17:02.851Z,25.10
2018-07-22T12:19:31.166Z,25.20
2018-07-22T12:21:59.495Z,25.30
2018-07-22T12:24:27.842Z,25.30
2018-07-22T12:26:56.163Z,25.30
2018-07-22T12:29:24.432Z,25.20
2018-07-22T12:31:52.715Z,25.30
2018-07-22T12:34:21.137Z,25.50
2018-07-22T12:36:49.462Z,25.60
2018-07-22T12:39:17.736Z,25.60
2018-07-22T12:41:46.045Z,25.70
2018-07-22T12:44:14.366Z,25.40
2018-07-22T12:46:42.638Z,25.30
2018-07-22T12:49:10.956Z,25.40
2018-07-22T12:51:39.284Z,25.30
2018-07-22T12:56:35.598Z,25.50
2018-07-22T12:59:03.967Z,25.40
2018-07-22T13:01:32.564Z,25.50
2018-07-22T13:04:01.164Z,25.60
2018-07-22T13:06:29.482Z,25.40
2018-07-22T13:08:57.740Z,25.50
2018-07-22T13:11:26.031Z,25.60
2018-07-22T13:13:54.322Z,25.60
2018-07-22T13:16:22.611Z,25.60
2018-07-22T13:18:50.981Z,26.00
2018-07-22T13:21:19.472Z,26.10
2018-07-22T13:23:47.746Z,25.50
2018-07-22T13:26:16.198Z,25.70
2018-07-22T13:28:44.522Z,26.00
2018-07-22T13:31:12.777Z,25.70
2018-07-22T13:33:41.232Z,25.40
2018-07-22T13:36:09.493Z,25.20
2018-07-22T13:38:37.754Z,25.40
2018-07-22T13:41:06.062Z,25.40
2018-07-22T13:43:34.364Z,25.70
2018-07-22T13:46:02.628Z,25.70
2018-07-22T13:48:30.942Z,26.10
2018-07-22T13:50:59.242Z,26.00
2018-07-22T13:53:27.578Z,26.40
2018-07-22T13:55:55.920Z,26.50
2018-07-22T13:58:24.212Z,26.70
2018-07-22T14:00:52.581Z,27.00
2018-07-22T14:03:20.876Z,26.90
2018-07-22T14:05:49.196Z,27.40
2018-07-22T14:13:13.616Z,27.80
2018-07-22T14:15:42.029Z,27.30
2018-07-22T14:18:10.552Z,27.60
2018-07-22T14:20:38.988Z,28.00
2018-07-22T14:23:07.274Z,28.10
2018-07-22T14:25:35.590Z,28.40
2018-07-22T14:28:03.942Z,28.00
2018-07-22T14:30:32.226Z,28.30
2018-07-22T14:33:00.636Z,28.70
2018-07-22T14:35:28.900Z,28.30
2018-07-22T14:37:57.183Z,28.60
2018-07-22T14:42:53.585Z,28.70
2018-07-22T14:45:21.845Z,28.40
2018-07-22T14:47:50.121Z,28.30
2018-07-22T14:50:18.420Z,28.30
2018-07-22T14:52:46.727Z,28.70
2018-07-22T14:55:15.130Z,28.60
2018-07-22T14:57:43.420Z,27.70
2018-07-22T15:00:11.715Z,27.90
2018-07-22T15:02:40.008Z,28.30
2018-07-22T15:05:08.331Z,27.90
2018-07-22T15:07:37.157Z,28.30
2018-07-22T15:10:05.465Z,27.70
2018-07-22T15:12:33.811Z,27.20
2018-07-22T15:15:02.174Z,27.00
2018-07-22T15:17:30.471Z,27.60
2018-07-22T15:19:58.763Z,27.40
2018-07-22T15:22:27.225Z,27.60
2018-07-22T15:24:55.540Z,27.60
2018-07-22T15:27:23.833Z,27.90
2018-07-22T15:29:52.155Z,28.40
2018-07-22T15:32:20.514Z,27.90
2018-07-22T15:34:48.807Z,27.80
2018-07-22T15:37:17.180Z,27.60
2018-07-22T15:39:45.685Z,27.60
2018-07-22T15:42:14.061Z,27.60
2018-07-22T15:44:42.373Z,27.60
2018-07-22T15:47:10.705Z,27.50
2018-07-22T15:49:39.125Z,27.40
2018-07-22T15:52:07.648Z,27.40
2018-07-22T15:54:35.931Z,27.10
2018-07-22T15:57:04.233Z,27.00
2018-07-22T15:59:32.579Z,26.80
2018-07-22T16:02:00.861Z,26.90
2018-07-22T16:04:29.134Z,26.60
2018-07-22T16:06:57.640Z,26.60
2018-07-22T16:09:26.122Z,26.50
2018-07-22T16:11:54.450Z,26.40
2018-07-22T16:14:22.843Z,26.20
2018-07-22T16:16:51.196Z,26.00
2018-07-22T16:19:19.494Z,25.90
2018-07-22T16:21:47.919Z,25.70
2018-07-22T16:24:16.242Z,25.60
2018-07-22T16:26:44.533Z,25.40
2018-07-22T16:29:12.915Z,25.50
2018-07-22T16:31:41.199Z,25.60
2018-07-22T16:34:09.548Z,25.60
2018-07-22T16:36:37.972Z,25.60
2018-07-22T16:39:07.949Z,25.80
2018-07-22T16:41:36.335Z,25.70
2018-07-22T16:44:05.090Z,25.80
2018-07-22T16:46:33.432Z,25.90
2018-07-22T16:49:01.779Z,25.70
2018-07-22T16:51:30.087Z,25.70
2018-07-22T16:53:58.370Z,25.50
2018-07-22T16:56:26.702Z,25.40
2018-07-22T16:58:54.972Z,25.40
2018-07-22T17:01:23.433Z,25.30
2018-07-22T17:03:51.662Z,25.30
2018-07-22T17:06:19.920Z,25.20
2018-07-22T17:08:48.206Z,25.40
2018-07-22T17:11:16.507Z,25.40
2018-07-22T17:13:44.876Z,25.50
2018-07-22T17:16:13.184Z,25.70
2018-07-22T17:18:41.514Z,25.90
2018-07-22T17:21:09.822Z,25.80
2018-07-22T17:23:38.081Z,25.90
2018-07-22T17:26:06.484Z,26.00
2018-07-22T17:28:34.775Z,25.90
2018-07-22T17:31:03.095Z,25.70
2018-07-22T17:33:31.382Z,25.80
2018-07-22T17:35:59.722Z,26.00
2018-07-22T17:38:28.047Z,26.20
2018-07-22T17:40:56.378Z,26.40
2018-07-22T17:43:24.691Z,26.30
2018-07-22T17:45:52.983Z,26.10
2018-07-22T17:48:21.358Z,26.10
2018-07-22T17:50:49.706Z,26.20
2018-07-22T17:53:18.166Z,26.30
2018-07-22T18:00:42.618Z,25.90
2018-07-22T18:03:27.146Z,25.50
2018-07-22T18:05:55.436Z,25.50
2018-07-22T18:08:23.746Z,25.60
2018-07-22T18:10:52.856Z,25.40
2018-07-22T18:13:21.185Z,25.30
2018-07-22T18:15:49.473Z,25.20
2018-07-22T18:18:17.814Z,25.10
2018-07-22T18:20:47.108Z,24.90
2018-07-22T18:23:15.499Z,24.90
2018-07-22T18:25:44.467Z,24.90
2018-07-22T18:28:13.439Z,24.70
2018-07-22T18:30:41.746Z,24.80
2018-07-22T18:33:10.237Z,24.70
2018-07-22T18:38:07.043Z,24.60
2018-07-22T18:40:35.799Z,24.50
2018-07-22T18:43:04.486Z,24.40
2018-07-22T18:45:33.191Z,24.30
2018-07-22T18:48:01.862Z,24.20
2018-07-22T18:50:30.548Z,24.10
2018-07-22T18:52:59.002Z,24.10
2018-07-22T18:55:27.910Z,24.00
2018-07-22T18:57:56.260Z,24.00
2018-07-22T19:02:52.681Z,24.00
2018-07-22T19:05:21.424Z,23.80
2018-07-22T19:07:49.866Z,23.70
2018-07-22T19:10:18.172Z,23.60
2018-07-22T19:12:46.588Z,23.50
2018-07-22T19:15:15.024Z,23.40
2018-07-22T19:17:43.352Z,23.30
2018-07-22T19:20:11.828Z,23.10
2018-07-22T19:22:40.114Z,23.00
2018-07-22T19:25:08.445Z,22.90
2018-07-22T19:27:36.869Z,23.00
2018-07-22T19:30:05.386Z,22.80
2018-07-22T19:32:33.686Z,22.80
2018-07-22T19:35:01.993Z,22.80
2018-07-22T19:37:30.334Z,22.60
2018-07-22T19:42:26.666Z,22.50
2018-07-22T19:44:55.016Z,22.40
2018-07-22T19:47:23.458Z,22.40
2018-07-22T19:49:52.033Z,22.30
2018-07-22T19:52:20.618Z,22.20
2018-07-22T19:54:48.957Z,22.10
2018-07-22T19:57:17.229Z,22.10
2018-07-22T19:59:45.643Z,22.10
2018-07-22T20:02:13.995Z,22.10
2018-07-22T20:04:42.309Z,21.90
2018-07-22T20:07:10.612Z,21.90
2018-07-22T20:09:40.007Z,21.80
2018-07-22T20:12:08.618Z,21.70
2018-07-22T20:14:37.349Z,21.70
2018-07-22T20:17:06.044Z,21.60
2018-07-22T20:19:35.033Z,21.60
2018-07-22T20:22:04.240Z,21.60
2018-07-22T20:24:33.012Z,21.60
2018-07-22T20:27:02.078Z,21.50
2018-07-22T20:29:31.013Z,21.40
2018-07-22T20:31:59.720Z,21.40
2018-07-22T20:34:29.051Z,21.40
2018-07-22T20:36:57.688Z,21.30
2018-07-22T20:39:26.634Z,21.30
2018-07-22T20:41:55.576Z,21.30
2018-07-22T20:44:24.503Z,21.20
2018-07-22T20:46:53.238Z,21.20
2018-07-22T20:49:21.681Z,21.10
2018-07-22T20:51:50.723Z,21.10
2018-07-22T20:54:19.735Z,21.00
2018-07-22T20:56:48.035Z,21.00
2018-07-22T20:59:17.124Z,20.90
2018-07-22T21:01:45.903Z,20.80
2018-07-22T21:04:14.986Z,20.80
2018-07-22T21:06:43.594Z,20.80
2018-07-22T21:09:12.446Z,20.70
2018-07-22T21:11:52.420Z,20.60
2018-07-22T21:14:21.236Z,20.60
2018-07-22T21:16:50.380Z,20.60
2018-07-22T21:19:18.880Z,20.60
2018-07-22T21:24:16.076Z,20.50
2018-07-22T21:26:44.397Z,20.40
2018-07-22T21:29:12.887Z,20.40
2018-07-22T21:31:41.181Z,20.40
2018-07-22T21:34:09.505Z,20.30
2018-07-22T21:36:37.823Z,20.40
2018-07-22T21:39:08.123Z,20.40
2018-07-22T21:41:36.466Z,20.30
2018-07-22T21:44:04.976Z,20.20
2018-07-22T21:46:33.234Z,20.20
2018-07-22T21:51:29.684Z,20.10
2018-07-22T21:53:58.046Z,20.10
2018-07-22T21:56:26.346Z,20.20
2018-07-22T21:58:54.728Z,20.20
2018-07-22T22:01:23.012Z,20.10
2018-07-22T22:03:51.389Z,20.10
2018-07-22T22:06:19.724Z,20.20
2018-07-22T22:08:48.018Z,20.10
2018-07-22T22:11:16.324Z,20.10
2018-07-22T22:13:44.612Z,20.10
2018-07-22T22:16:12.975Z,20.10
2018-07-22T22:18:41.463Z,19.90
2018-07-22T22:21:09.766Z,20.00
2018-07-22T22:23:38.074Z,19.90
2018-07-22T22:26:06.366Z,19.90
2018-07-22T22:28:34.639Z,19.80
2018-07-22T22:31:02.946Z,19.80
2018-07-22T22:33:31.528Z,19.90
2018-07-22T22:35:59.798Z,19.90
2018-07-22T22:38:28.083Z,19.90
2018-07-22T22:40:56.418Z,19.80
2018-07-22T22:43:24.716Z,19.80
2018-07-22T22:45:52.988Z,19.70
2018-07-22T22:48:21.253Z,19.70
2018-07-22T22:50:49.576Z,19.70
2018-07-22T22:53:17.943Z,19.70
2018-07-22T22:55:46.222Z,19.70
2018-07-22T22:58:26.096Z,19.60
2018-07-22T23:00:54.372Z,19.70
2018-07-22T23:03:22.643Z,19.60
2018-07-22T23:05:51.158Z,19.50
2018-07-22T23:13:15.522Z,19.50
2018-07-22T23:15:43.802Z,19.50
2018-07-22T23:18:12.120Z,19.50
2018-07-22T23:23:08.408Z,19.30
2018-07-22T23:25:36.680Z,19.30
2018-07-22T23:28:04.970Z,19.30
2018-07-22T23:30:33.211Z,19.20
2018-07-22T23:33:01.468Z,19.10
2018-07-22T23:35:29.841Z,19.00
2018-07-22T23:37:58.125Z,18.90
2018-07-22T23:40:26.410Z,18.90
2018-07-22T23:42:54.676Z,19.10
2018-07-22T23:45:22.956Z,19.20
2018-07-22T23:47:51.213Z,19.20
2018-07-22T23:50:19.462Z,19.30
2018-07-22T23:52:47.814Z,19.30
2018-07-22T23:55:16.097Z,19.40
2018-07-22T23:57:44.382Z,19.30
